Time;durP1;ratioP1;P1;durP2;ratioP2;P2;SDS_P1;SDS_P2;PMS_P1;PMS_P2;Temp;Humidity;BMP_temperature;BMP_pressure;BME280_temperature;BME280_humidity;BME280_pressure;Samples;Min_cycle;Max_cycle;Signal;HPM_P1;HPM_P2
2022/08/10 00:02:43;;;;;;;3.42;1.30;;;19.80;60.30;;;;;;4993564;28;20041;-66
2022/08/10 00:05:08;;;;;;;1.10;1.00;;;19.70;60.60;;;;;;4997342;28;20030;-67
2022/08/10 00:07:34;;;;;;;1.50;1.10;;;19.70;60.70;;;;;;4993350;28;20037;-67
2022/08/10 00:09:59;;;;;;;1.30;1.00;;;19.70;60.70;;;;;;5000855;28;20488;-68
2022/08/10 00:12:25;;;;;;;1.38;1.00;;;19.70;60.70;;;;;;5010849;28;20105;-67
2022/08/10 00:14:51;;;;;;;1.10;0.90;;;19.60;60.70;;;;;;5001643;28;20504;-67
2022/08/10 00:17:16;;;;;;;1.25;1.15;;;19.60;60.80;;;;;;5010152;28;20022;-68
2022/08/10 00:19:42;;;;;;;1.33;1.08;;;19.60;60.80;;;;;;5001437;28;20543;-67
2022/08/10 00:22:07;;;;;;;1.35;1.20;;;19.60;60.90;;;;;;4998257;28;20105;-67
2022/08/10 00:24:33;;;;;;;2.72;1.30;;;19.50;61.30;;;;;;4997348;28;20050;-68
2022/08/10 00:26:58;;;;;;;2.28;1.20;;;19.40;61.60;;;;;;5001521;28;20054;-66
2022/08/10 00:29:24;;;;;;;1.13;1.00;;;19.40;61.50;;;;;;4999001;28;20034;-67
2022/08/10 00:31:49;;;;;;;1.17;1.08;;;19.50;61.50;;;;;;5006120;28;20080;-67
2022/08/10 00:34:15;;;;;;;2.25;1.20;;;19.50;61.40;;;;;;5004935;28;20041;-68
2022/08/10 00:36:40;;;;;;;1.55;1.10;;;19.40;61.60;;;;;;5019550;28;20087;-67
2022/08/10 00:39:06;;;;;;;1.48;1.20;;;19.40;61.80;;;;;;5002562;28;20037;-69
2022/08/10 00:41:31;;;;;;;1.38;1.27;;;19.40;61.90;;;;;;4998596;28;20053;-68
2022/08/10 00:43:57;;;;;;;2.25;1.20;;;19.40;62.00;;;;;;5005026;28;20026;-69
2022/08/10 00:46:23;;;;;;;1.33;1.20;;;19.30;62.40;;;;;;5005673;28;20481;-67
2022/08/10 00:48:48;;;;;;;1.77;1.00;;;19.20;62.50;;;;;;5009895;28;20026;-68
2022/08/10 00:51:14;;;;;;;2.10;1.15;;;19.20;62.40;;;;;;5006918;28;20087;-68
2022/08/10 00:53:40;;;;;;;1.17;1.08;;;19.20;62.30;;;;;;4997491;28;20030;-67
2022/08/10 00:56:06;;;;;;;1.17;1.08;;;19.20;62.50;;;;;;5004554;28;20017;-68
2022/08/10 00:58:32;;;;;;;1.20;1.10;;;19.20;62.60;;;;;;5006138;28;20083;-68
2022/08/10 01:00:58;;;;;;;1.17;1.02;;;19.10;62.50;;;;;;5006495;28;20026;-69
2022/08/10 01:03:23;;;;;;;1.92;1.20;;;19.10;62.40;;;;;;5000922;28;20021;-68
2022/08/10 01:06:04;;;;;;;1.38;1.20;;;19.10;62.40;;;;;;5004745;28;20040;-69
2022/08/10 01:08:50;;;;;;;1.30;0.93;;;19.10;62.60;;;;;;5002227;28;20033;-68
2022/08/10 01:11:42;;;;;;;2.50;1.20;;;19.00;62.50;;;;;;5002794;28;20054;-69
2022/08/10 01:14:25;;;;;;;1.20;1.10;;;19.00;62.70;;;;;;5006247;28;20116;-68
2022/08/10 01:17:10;;;;;;;1.20;1.10;;;19.00;62.80;;;;;;5009306;28;20045;-69
2022/08/10 01:20:01;;;;;;;1.00;1.00;;;19.00;62.90;;;;;;5007081;28;20084;-69
2022/08/10 01:22:54;;;;;;;1.30;1.20;;;18.90;63.00;;;;;;5004541;28;20014;-68
2022/08/10 01:25:41;;;;;;;1.45;1.10;;;18.90;63.10;;;;;;5003801;28;20664;-68
2022/08/10 01:28:31;;;;;;;1.45;1.33;;;18.90;63.20;;;;;;5008034;28;20484;-67
2022/08/10 01:31:00;;;;;;;1.48;0.98;;;18.80;63.20;;;;;;5004008;28;20030;-68
2022/08/10 01:33:31;;;;;;;2.47;1.40;;;18.80;63.30;;;;;;4996733;28;20033;-68
2022/08/10 01:36:08;;;;;;;1.90;1.40;;;18.80;63.70;;;;;;5003666;28;20029;-68
2022/08/10 01:38:40;;;;;;;1.50;1.40;;;18.70;64.10;;;;;;5009295;28;20380;-67
2022/08/10 01:41:11;;;;;;;1.63;1.42;;;18.70;64.40;;;;;;4999502;28;20029;-68
2022/08/10 01:43:42;;;;;;;1.52;1.30;;;18.60;64.30;;;;;;5002591;28;20046;-68
2022/08/10 01:46:10;;;;;;;1.98;1.58;;;18.60;64.40;;;;;;5002577;28;20036;-67
2022/08/10 01:48:40;;;;;;;1.50;1.40;;;18.60;64.50;;;;;;5009087;28;20029;-68
2022/08/10 01:51:47;;;;;;;1.77;1.40;;;18.60;64.70;;;;;;5012610;28;20394;-68
2022/08/10 01:54:18;;;;;;;1.67;1.55;;;18.60;64.70;;;;;;4969674;28;20076;-67
2022/08/10 01:56:51;;;;;;;1.80;1.40;;;18.60;64.80;;;;;;4987094;28;20069;-67
2022/08/10 01:59:30;;;;;;;1.52;1.42;;;18.50;64.80;;;;;;4998912;28;20612;-67
2022/08/10 02:02:03;;;;;;;2.55;1.33;;;18.50;65.00;;;;;;5009031;28;20483;-67
2022/08/10 02:04:32;;;;;;;1.63;1.42;;;18.50;65.00;;;;;;5006531;28;20018;-69
2022/08/10 02:07:00;;;;;;;2.72;1.50;;;18.50;65.20;;;;;;4995396;28;20026;-68
2022/08/10 02:09:29;;;;;;;1.60;1.40;;;18.40;65.20;;;;;;5006323;28;20504;-67
2022/08/10 02:12:00;;;;;;;1.60;1.50;;;18.40;65.30;;;;;;4996242;28;20030;-66
2022/08/10 02:14:30;;;;;;;1.30;1.20;;;18.40;65.50;;;;;;5003645;28;20473;-67
2022/08/10 02:16:56;;;;;;;1.58;1.48;;;18.40;65.50;;;;;;5000092;28;22529;-67
2022/08/10 02:19:24;;;;;;;1.60;1.50;;;18.30;65.70;;;;;;5006999;28;20112;-67
2022/08/10 02:21:53;;;;;;;1.35;1.25;;;18.30;65.80;;;;;;5001078;28;20022;-66
2022/08/10 02:24:19;;;;;;;1.75;1.40;;;18.30;65.80;;;;;;5008257;28;20072;-66
2022/08/10 02:26:47;;;;;;;2.58;1.67;;;18.30;65.90;;;;;;4992461;28;20389;-66
2022/08/10 02:29:15;;;;;;;1.85;1.35;;;18.20;66.10;;;;;;4990899;28;20042;-66
2022/08/10 02:31:42;;;;;;;1.80;1.70;;;18.20;66.30;;;;;;5003795;28;20018;-67
2022/08/10 02:34:13;;;;;;;1.90;1.60;;;18.20;66.40;;;;;;5007543;28;20105;-67
2022/08/10 02:36:48;;;;;;;3.13;1.73;;;18.20;66.80;;;;;;5005945;28;20054;-69
2022/08/10 02:39:15;;;;;;;2.25;1.83;;;18.10;66.80;;;;;;5008258;28;20037;-67
2022/08/10 02:41:55;;;;;;;2.05;1.70;;;18.10;67.10;;;;;;4997978;28;20417;-68
2022/08/10 02:44:35;;;;;;;2.45;1.70;;;18.00;67.40;;;;;;4998421;28;20064;-69
2022/08/10 02:47:41;;;;;;;2.65;1.85;;;18.00;67.70;;;;;;5005767;28;20018;-68
2022/08/10 02:50:26;;;;;;;2.60;2.00;;;17.90;67.80;;;;;;4988004;28;20073;-68
2022/08/10 02:53:23;;;;;;;2.55;1.90;;;17.90;68.60;;;;;;5000983;28;20121;-68
2022/08/10 02:55:56;;;;;;;2.50;1.88;;;17.90;68.00;;;;;;4996043;28;20044;-69
2022/08/10 02:58:33;;;;;;;2.88;2.00;;;17.80;68.00;;;;;;4997707;28;20447;-68
2022/08/10 03:01:03;;;;;;;2.00;1.75;;;17.80;68.20;;;;;;5010830;28;20055;-67
2022/08/10 03:03:36;;;;;;;1.90;1.75;;;17.80;68.30;;;;;;5009784;28;20018;-67
2022/08/10 03:06:09;;;;;;;2.63;2.33;;;17.70;68.70;;;;;;5005775;28;20599;-67
2022/08/10 03:08:40;;;;;;;2.90;2.30;;;17.70;69.10;;;;;;4998152;28;20040;-68
2022/08/10 03:11:08;;;;;;;2.95;2.05;;;17.70;69.40;;;;;;5003434;28;20050;-68
2022/08/10 03:13:35;;;;;;;2.85;2.05;;;17.60;69.50;;;;;;5001207;28;20105;-68
2022/08/10 03:16:02;;;;;;;3.00;2.30;;;17.70;69.70;;;;;;5005823;28;20118;-68
2022/08/10 03:18:29;;;;;;;2.53;2.22;;;17.60;69.90;;;;;;5012034;28;20033;-66
2022/08/10 03:20:56;;;;;;;2.75;1.95;;;17.60;70.00;;;;;;5008824;28;20122;-66
2022/08/10 03:23:23;;;;;;;2.78;1.80;;;17.50;70.00;;;;;;4995376;28;20022;-66
2022/08/10 03:25:53;;;;;;;3.35;2.20;;;17.50;70.30;;;;;;5008082;28;21452;-66
2022/08/10 03:28:21;;;;;;;2.80;2.33;;;17.50;70.40;;;;;;4993946;28;20076;-67
2022/08/10 03:30:47;;;;;;;4.45;2.25;;;17.50;70.50;;;;;;4994907;28;20062;-67
2022/08/10 03:33:14;;;;;;;3.28;2.78;;;17.50;70.80;;;;;;5007273;28;20041;-66
2022/08/10 03:35:40;;;;;;;3.45;2.60;;;17.30;72.40;;;;;;5000807;28;20057;-67
2022/08/10 03:38:05;;;;;;;4.38;3.08;;;17.30;72.40;;;;;;5008601;28;20064;-68
2022/08/10 03:40:37;;;;;;;3.05;2.55;;;17.20;72.70;;;;;;5010137;28;20018;-68
2022/08/10 03:43:06;;;;;;;3.13;2.30;;;17.30;72.60;;;;;;5001586;28;20029;-67
2022/08/10 03:45:33;;;;;;;3.45;2.35;;;17.30;72.40;;;;;;4994132;28;20030;-68
2022/08/10 03:48:00;;;;;;;2.95;2.40;;;17.30;72.20;;;;;;5008145;28;20061;-67
2022/08/10 03:50:27;;;;;;;3.47;2.50;;;17.30;72.10;;;;;;4993496;28;20046;-68
2022/08/10 03:52:54;;;;;;;4.25;2.80;;;17.30;72.00;;;;;;5000256;28;20079;-68
2022/08/10 03:55:21;;;;;;;3.83;2.65;;;17.30;72.40;;;;;;4993570;28;20076;-68
2022/08/10 03:57:47;;;;;;;3.67;2.85;;;17.20;72.50;;;;;;4998102;28;20040;-68
2022/08/10 04:00:17;;;;;;;3.70;3.10;;;17.20;72.70;;;;;;4996722;28;20144;-68
2022/08/10 04:02:47;;;;;;;3.30;2.75;;;17.20;72.80;;;;;;5007601;28;20022;-69
2022/08/10 04:05:14;;;;;;;4.72;3.08;;;17.20;72.90;;;;;;4994879;28;20026;-69
2022/08/10 04:07:43;;;;;;;3.72;2.97;;;17.10;73.10;;;;;;4998769;28;20027;-69
2022/08/10 04:10:10;;;;;;;4.07;2.90;;;17.10;73.20;;;;;;4993300;28;20052;-69
2022/08/10 04:12:36;;;;;;;3.40;3.10;;;17.10;73.20;;;;;;5006108;28;20115;-69
2022/08/10 04:15:02;;;;;;;4.57;3.30;;;17.10;73.40;;;;;;5002853;28;20065;-68
2022/08/10 04:17:27;;;;;;;4.00;3.30;;;17.10;73.40;;;;;;5002149;28;20482;-68
2022/08/10 04:19:55;;;;;;;3.88;3.45;;;17.10;73.80;;;;;;4991862;28;20033;-68
2022/08/10 04:22:23;;;;;;;5.72;4.25;;;17.00;74.50;;;;;;4997337;28;20014;-68
2022/08/10 04:24:55;;;;;;;6.53;4.10;;;17.00;74.80;;;;;;5001458;28;20045;-69
2022/08/10 04:27:21;;;;;;;3.50;3.20;;;16.90;75.40;;;;;;4997711;28;20053;-68
2022/08/10 04:29:50;;;;;;;4.03;3.35;;;16.90;75.20;;;;;;4998875;28;20096;-68
2022/08/10 04:32:18;;;;;;;4.55;3.30;;;16.90;75.00;;;;;;4995609;28;20018;-68
2022/08/10 04:34:45;;;;;;;3.95;3.28;;;17.00;74.80;;;;;;5003669;28;20026;-67
2022/08/10 04:37:12;;;;;;;3.95;3.38;;;17.00;74.60;;;;;;4996199;28;20072;-67
2022/08/10 04:39:38;;;;;;;5.05;3.10;;;17.00;74.60;;;;;;5001749;28;20019;-68
2022/08/10 04:42:04;;;;;;;5.05;4.05;;;17.00;74.50;;;;;;4998751;28;20044;-68
2022/08/10 04:44:31;;;;;;;4.57;3.67;;;17.00;75.10;;;;;;5004697;28;20030;-68
2022/08/10 04:46:56;;;;;;;5.28;3.22;;;16.90;75.30;;;;;;5004263;28;20025;-68
2022/08/10 04:49:22;;;;;;;5.40;3.80;;;17.00;75.10;;;;;;4992074;28;20465;-68
2022/08/10 04:51:48;;;;;;;4.07;2.90;;;16.90;75.00;;;;;;4993490;28;20433;-67
2022/08/10 04:54:13;;;;;;;4.65;3.60;;;17.00;74.90;;;;;;5009153;28;20026;-66
2022/08/10 04:56:39;;;;;;;6.28;4.50;;;17.00;75.00;;;;;;5008208;28;20022;-66
2022/08/10 04:59:06;;;;;;;3.63;3.22;;;17.00;75.10;;;;;;5005853;28;20027;-66
2022/08/10 05:01:32;;;;;;;4.03;3.45;;;17.00;75.00;;;;;;5009776;28;20041;-69
2022/08/10 05:03:57;;;;;;;3.80;3.13;;;17.00;74.90;;;;;;5007025;28;20028;-68
2022/08/10 05:06:23;;;;;;;3.83;3.20;;;17.10;74.80;;;;;;5007159;28;20031;-69
2022/08/10 05:08:49;;;;;;;6.68;4.80;;;17.10;74.60;;;;;;5005136;28;20076;-68
2022/08/10 05:11:14;;;;;;;4.95;3.80;;;17.00;75.40;;;;;;5004069;28;20053;-68
2022/08/10 05:13:40;;;;;;;6.03;4.30;;;17.10;75.30;;;;;;4998251;28;20078;-68
2022/08/10 05:16:06;;;;;;;6.18;4.82;;;17.10;75.80;;;;;;4997087;28;20111;-68
2022/08/10 05:18:31;;;;;;;4.78;4.05;;;17.00;76.30;;;;;;4999013;28;20681;-67
2022/08/10 05:20:57;;;;;;;5.00;3.90;;;17.10;76.30;;;;;;5000938;28;20059;-69
2022/08/10 05:23:22;;;;;;;6.72;4.45;;;17.10;76.30;;;;;;5003230;28;20054;-68
2022/08/10 05:25:48;;;;;;;5.75;4.80;;;17.20;76.00;;;;;;5005186;28;20101;-67
2022/08/10 05:28:13;;;;;;;5.30;4.47;;;17.20;76.00;;;;;;5005456;28;20038;-65
2022/08/10 05:30:39;;;;;;;6.35;4.45;;;17.30;76.20;;;;;;5000916;28;20058;-65
2022/08/10 05:33:04;;;;;;;5.10;3.58;;;17.80;76.30;;;;;;4993347;28;20093;-65
2022/08/10 05:35:30;;;;;;;4.40;3.70;;;19.20;73.40;;;;;;4999191;28;20026;-66
2022/08/10 05:37:58;;;;;;;5.65;3.80;;;20.30;69.80;;;;;;4997482;28;20026;-66
2022/08/10 05:40:25;;;;;;;4.00;3.30;;;21.60;66.30;;;;;;5000447;28;20022;-66
2022/08/10 05:42:50;;;;;;;2.95;2.45;;;22.70;63.20;;;;;;4992740;28;20437;-66
2022/08/10 05:45:22;;;;;;;4.50;2.92;;;23.50;60.50;;;;;;4998307;28;20022;-66
2022/08/10 05:47:48;;;;;;;5.90;4.03;;;24.10;58.90;;;;;;5004167;28;20026;-66
2022/08/10 05:50:17;;;;;;;4.10;3.22;;;24.50;56.80;;;;;;5002205;28;20100;-66
2022/08/10 05:52:43;;;;;;;4.05;2.88;;;25.30;55.60;;;;;;4998654;28;20027;-67
2022/08/10 05:55:09;;;;;;;4.05;2.13;;;26.00;54.10;;;;;;4996329;28;20420;-66
2022/08/10 05:57:35;;;;;;;5.57;2.95;;;26.20;53.10;;;;;;4997368;28;20495;-66
2022/08/10 06:00:05;;;;;;;3.10;2.50;;;26.30;52.50;;;;;;5004473;28;20026;-68
2022/08/10 06:02:36;;;;;;;3.45;2.42;;;26.20;52.10;;;;;;5003098;28;20086;-68
2022/08/10 06:05:08;;;;;;;3.33;2.75;;;26.40;52.10;;;;;;5003971;28;20164;-68
2022/08/10 06:07:39;;;;;;;3.83;2.83;;;26.80;51.30;;;;;;4999131;28;20571;-67
2022/08/10 06:10:05;;;;;;;3.72;2.70;;;27.30;50.20;;;;;;5000874;28;20390;-68
2022/08/10 06:12:34;;;;;;;2.92;2.60;;;27.80;49.30;;;;;;5007145;28;20084;-67
2022/08/10 06:15:02;;;;;;;3.40;2.50;;;28.20;48.20;;;;;;4998560;28;20096;-67
2022/08/10 06:17:29;;;;;;;4.57;3.20;;;28.50;47.50;;;;;;4996787;28;20073;-67
2022/08/10 06:19:56;;;;;;;3.75;3.00;;;28.80;46.50;;;;;;4998210;28;20057;-68
2022/08/10 06:22:24;;;;;;;3.03;2.53;;;28.60;46.20;;;;;;5004082;28;20034;-68
2022/08/10 06:24:50;;;;;;;4.00;3.00;;;28.90;45.80;;;;;;5003500;28;20034;-68
2022/08/10 06:27:16;;;;;;;2.90;2.50;;;29.30;45.30;;;;;;4995677;28;20543;-67
2022/08/10 06:29:43;;;;;;;2.75;2.42;;;29.00;45.10;;;;;;4999521;28;20037;-68
2022/08/10 06:32:11;;;;;;;3.05;2.15;;;29.40;44.90;;;;;;5001861;28;20021;-67
2022/08/10 06:34:49;;;;;;;3.15;2.03;;;29.90;44.40;;;;;;5002205;28;20026;-66
2022/08/10 06:37:18;;;;;;;2.40;2.20;;;30.40;43.60;;;;;;4998134;28;20121;-67
2022/08/10 06:39:44;;;;;;;2.67;2.10;;;30.70;42.90;;;;;;4999789;28;20029;-67
2022/08/10 06:42:18;;;;;;;2.50;2.30;;;31.00;42.50;;;;;;5008361;28;20488;-67
2022/08/10 06:45:20;;;;;;;2.40;2.15;;;31.10;42.20;;;;;;5003092;28;20115;-67
2022/08/10 06:48:13;;;;;;;2.88;1.95;;;31.20;42.50;;;;;;4988520;28;20038;-68
2022/08/10 06:50:43;;;;;;;1.70;1.48;;;31.50;42.20;;;;;;4992929;28;20054;-66
2022/08/10 06:53:16;;;;;;;2.50;2.10;;;31.80;41.60;;;;;;5010385;28;20136;-67
2022/08/10 06:55:47;;;;;;;3.05;2.20;;;31.70;41.40;;;;;;5008684;28;20026;-67
2022/08/10 06:58:14;;;;;;;2.78;2.20;;;30.80;41.30;;;;;;5008601;28;20064;-67
2022/08/10 07:00:42;;;;;;;3.67;2.10;;;30.10;42.10;;;;;;5009691;28;20107;-66
2022/08/10 07:03:11;;;;;;;2.70;2.10;;;29.90;43.00;;;;;;5012710;28;20013;-66
2022/08/10 07:05:48;;;;;;;3.17;2.05;;;29.40;42.50;;;;;;5012474;28;20524;-66
2022/08/10 07:08:18;;;;;;;2.25;2.00;;;29.40;43.20;;;;;;5008698;28;20091;-66
2022/08/10 07:10:46;;;;;;;6.10;2.33;;;29.40;43.60;;;;;;5010636;28;20025;-66
2022/08/10 07:13:14;;;;;;;2.80;2.00;;;29.50;43.20;;;;;;5010363;28;20034;-68
2022/08/10 07:15:42;;;;;;;2.40;1.58;;;29.80;43.40;;;;;;5011212;28;20492;-66
2022/08/10 07:18:10;;;;;;;2.85;1.30;;;30.40;42.80;;;;;;5011165;28;20029;-67
2022/08/10 07:20:36;;;;;;;1.98;1.52;;;31.00;42.80;;;;;;5012947;28;20072;-67
2022/08/10 07:23:02;;;;;;;2.22;1.40;;;31.50;41.20;;;;;;5008232;28;20071;-67
2022/08/10 07:25:29;;;;;;;2.45;1.50;;;31.30;40.10;;;;;;5009311;28;20033;-67
2022/08/10 07:27:57;;;;;;;3.20;1.63;;;31.10;40.40;;;;;;5009107;28;20042;-67
2022/08/10 07:30:27;;;;;;;2.20;1.40;;;30.90;40.30;;;;;;5007939;28;20021;-67
2022/08/10 07:32:54;;;;;;;1.52;1.35;;;31.10;40.30;;;;;;5009060;28;20042;-69
2022/08/10 07:35:21;;;;;;;1.92;1.30;;;31.70;39.90;;;;;;5008710;28;20084;-69
2022/08/10 07:37:49;;;;;;;2.72;1.35;;;32.00;39.50;;;;;;5006811;28;20045;-67
2022/08/10 07:40:18;;;;;;;1.42;1.27;;;32.10;39.10;;;;;;5008048;28;20022;-67
2022/08/10 07:42:47;;;;;;;2.25;1.20;;;32.30;39.10;;;;;;5010513;28;20034;-67
2022/08/10 07:45:14;;;;;;;1.67;1.40;;;32.30;38.90;;;;;;5011668;28;20045;-67
2022/08/10 07:47:59;;;;;;;1.77;1.40;;;32.10;39.30;;;;;;5013386;28;20030;-67
2022/08/10 07:50:28;;;;;;;1.70;1.40;;;32.20;39.40;;;;;;5011349;28;20622;-68
2022/08/10 07:52:58;;;;;;;2.13;1.30;;;32.10;39.60;;;;;;5011829;28;20033;-67
2022/08/10 07:55:24;;;;;;;1.77;1.25;;;31.80;40.00;;;;;;5014730;28;20022;-68
2022/08/10 07:57:53;;;;;;;1.90;1.20;;;31.40;40.50;;;;;;5012818;28;20033;-68
2022/08/10 08:00:19;;;;;;;2.38;1.40;;;31.00;40.80;;;;;;5011026;28;20698;-67
2022/08/10 08:02:57;;;;;;;2.42;1.85;;;30.40;40.90;;;;;;5010254;28;20129;-67
2022/08/10 08:05:29;;;;;;;3.58;1.50;;;29.70;41.10;;;;;;5011346;28;20018;-68
2022/08/10 08:07:56;;;;;;;4.10;1.40;;;29.00;41.50;;;;;;5015867;28;20399;-67
2022/08/10 08:10:24;;;;;;;5.97;1.40;;;28.50;42.40;;;;;;5015863;28;20055;-68
2022/08/10 08:12:52;;;;;;;2.03;1.50;;;28.30;43.00;;;;;;5012284;28;20156;-69
2022/08/10 08:15:21;;;;;;;2.67;1.50;;;28.20;43.10;;;;;;5015702;28;20032;-67
2022/08/10 08:17:48;;;;;;;2.00;1.20;;;28.10;43.30;;;;;;5023929;28;20030;-68
2022/08/10 08:20:16;;;;;;;2.30;1.25;;;28.00;43.30;;;;;;5011083;28;20022;-67
2022/08/10 08:22:43;;;;;;;2.13;1.38;;;28.00;43.20;;;;;;5007638;28;20022;-67
2022/08/10 08:25:10;;;;;;;2.08;1.15;;;28.00;42.90;;;;;;5013314;28;20084;-68
2022/08/10 08:27:39;;;;;;;2.58;1.50;;;28.00;43.00;;;;;;5012915;28;20034;-67
2022/08/10 08:30:07;;;;;;;3.13;1.50;;;27.90;42.40;;;;;;5011084;28;20105;-68
2022/08/10 08:32:39;;;;;;;1.83;1.30;;;27.80;42.40;;;;;;5014037;28;20477;-68
2022/08/10 08:35:08;;;;;;;4.82;1.40;;;27.80;42.50;;;;;;5010864;28;20054;-68
2022/08/10 08:37:36;;;;;;;2.38;1.30;;;27.90;42.30;;;;;;5010589;28;20079;-66
2022/08/10 08:40:10;;;;;;;1.85;1.20;;;27.90;42.00;;;;;;5025963;28;20377;-66
2022/08/10 08:43:08;;;;;;;1.30;1.10;;;28.00;41.80;;;;;;5012853;28;20034;-67
2022/08/10 08:45:46;;;;;;;3.25;1.30;;;28.10;41.90;;;;;;5012187;28;20053;-67
2022/08/10 08:48:18;;;;;;;1.58;1.20;;;28.10;41.00;;;;;;5010689;28;20722;-67
2022/08/10 08:50:50;;;;;;;;;;;28.10;41.20;;;;;;5012325;28;20061;-69
2022/08/10 08:53:42;;;;;;;3.25;1.30;;;28.20;41.40;;;;;;5004873;28;19917;-68
2022/08/10 08:56:38;;;;;;;2.08;1.20;;;28.30;41.50;;;;;;5010403;28;20508;-68
2022/08/10 08:59:22;;;;;;;4.15;1.58;;;28.50;41.80;;;;;;5007249;28;20029;-68
2022/08/10 09:02:06;;;;;;;2.70;1.60;;;28.60;41.50;;;;;;5010520;28;20590;-67
2022/08/10 09:04:43;;;;;;;2.60;1.40;;;28.50;41.10;;;;;;5010189;28;20025;-68
2022/08/10 09:07:42;;;;;;;3.17;1.55;;;28.40;41.00;;;;;;5011867;28;20022;-67
2022/08/10 09:10:25;;;;;;;4.30;1.73;;;28.50;40.90;;;;;;5011045;28;20032;-67
2022/08/10 09:13:00;;;;;;;2.58;1.48;;;28.60;40.90;;;;;;5009768;28;20108;-67
2022/08/10 09:15:50;;;;;;;2.35;1.35;;;28.60;40.70;;;;;;5009564;28;20061;-67
2022/08/10 09:18:32;;;;;;;2.08;1.50;;;28.70;40.10;;;;;;5009396;28;20022;-67
2022/08/10 09:21:08;;;;;;;3.13;1.73;;;28.70;39.50;;;;;;5011192;28;20050;-67
2022/08/10 09:23:43;;;;;;;2.45;1.35;;;28.60;40.00;;;;;;5010933;28;20022;-68
2022/08/10 09:26:17;;;;;;;2.38;1.52;;;28.60;39.80;;;;;;5007737;28;20063;-68
2022/08/10 09:28:43;;;;;;;2.03;1.40;;;28.70;39.90;;;;;;5010061;28;20018;-67
2022/08/10 09:31:11;;;;;;;2.42;1.20;;;28.70;38.80;;;;;;5009302;28;20034;-68
2022/08/10 09:33:46;;;;;;;1.52;1.33;;;28.70;38.20;;;;;;5009754;28;20029;-67
2022/08/10 09:36:37;;;;;;;2.60;1.23;;;28.60;38.60;;;;;;5008757;28;20073;-68
2022/08/10 09:39:22;;;;;;;2.13;1.30;;;28.70;38.70;;;;;;5008327;28;20018;-68
2022/08/10 09:42:15;;;;;;;1.80;1.20;;;28.80;38.50;;;;;;5008801;28;20036;-67
2022/08/10 09:44:50;;;;;;;2.15;1.40;;;28.80;37.80;;;;;;5010747;28;20053;-68
2022/08/10 09:47:33;;;;;;;1.75;1.35;;;28.70;37.70;;;;;;5008661;28;20022;-67
2022/08/10 09:50:07;;;;;;;1.20;1.10;;;28.60;38.20;;;;;;5009013;28;20017;-68
2022/08/10 09:52:57;;;;;;;1.38;1.20;;;28.60;37.50;;;;;;5006200;28;20029;-68
2022/08/10 09:55:39;;;;;;;1.85;1.27;;;28.50;36.80;;;;;;5014229;28;20175;-69
2022/08/10 09:58:25;;;;;;;1.83;1.23;;;28.50;36.90;;;;;;5010495;28;20034;-68
2022/08/10 10:01:12;;;;;;;2.15;1.20;;;28.50;37.50;;;;;;5008782;28;20026;-68
2022/08/10 10:03:49;;;;;;;1.20;1.10;;;28.50;38.00;;;;;;5011950;28;20038;-68
2022/08/10 10:06:16;;;;;;;1.65;1.00;;;28.70;38.10;;;;;;5009439;28;20464;-68
2022/08/10 10:09:02;;;;;;;2.17;1.20;;;28.80;37.50;;;;;;5007311;28;20026;-67
2022/08/10 10:11:43;;;;;;;1.45;1.20;;;28.70;37.10;;;;;;5008177;28;20026;-67
2022/08/10 10:14:32;;;;;;;2.15;1.08;;;28.70;36.80;;;;;;5008289;28;20021;-67
2022/08/10 10:17:15;;;;;;;1.42;1.10;;;28.70;37.40;;;;;;5021381;28;20081;-69
2022/08/10 10:19:51;;;;;;;1.83;1.05;;;28.80;37.40;;;;;;5044857;28;20033;-67
2022/08/10 10:22:27;;;;;;;3.85;1.38;;;28.80;37.60;;;;;;5011209;28;20049;-68
2022/08/10 10:25:05;;;;;;;1.95;1.00;;;28.90;37.60;;;;;;5010201;28;20500;-67
2022/08/10 10:27:46;;;;;;;3.40;1.20;;;29.00;37.50;;;;;;5011343;28;20057;-68
2022/08/10 10:30:14;;;;;;;4.05;1.40;;;29.10;37.00;;;;;;5007473;28;20029;-68
2022/08/10 10:33:01;;;;;;;2.28;0.93;;;29.20;37.30;;;;;;5006522;28;20404;-67
2022/08/10 10:35:37;;;;;;;2.15;1.13;;;29.40;37.50;;;;;;5023780;28;20037;-68
2022/08/10 10:38:07;;;;;;;2.05;1.52;;;29.20;35.90;;;;;;5008118;28;20022;-68
2022/08/10 10:40:58;;;;;;;2.97;1.10;;;29.10;35.80;;;;;;5008898;28;20461;-67
2022/08/10 10:43:41;;;;;;;2.63;1.08;;;28.90;36.10;;;;;;5006669;28;20052;-68
2022/08/10 10:46:23;;;;;;;1.02;0.90;;;29.00;36.20;;;;;;5005828;28;20716;-67
2022/08/10 10:49:02;;;;;;;1.33;1.15;;;29.00;36.00;;;;;;5007559;28;20057;-69
2022/08/10 10:52:01;;;;;;;1.83;0.85;;;29.00;36.20;;;;;;5007776;28;20037;-67
2022/08/10 10:54:57;;;;;;;0.90;0.90;;;29.20;36.90;;;;;;5007012;28;20128;-67
2022/08/10 10:57:47;;;;;;;1.50;1.00;;;29.20;36.40;;;;;;5011308;28;20528;-67
2022/08/10 11:00:17;;;;;;;2.80;1.27;;;29.20;36.50;;;;;;4990954;28;20155;-68
2022/08/10 11:02:57;;;;;;;2.05;1.42;;;29.20;36.50;;;;;;5012817;28;20029;-68
2022/08/10 11:05:57;;;;;;;1.47;0.97;;;29.10;36.80;;;;;;5028438;28;20058;-69
2022/08/10 11:08:26;;;;;;;1.17;1.00;;;29.10;36.80;;;;;;5012785;28;20049;-68
2022/08/10 11:11:00;;;;;;;3.33;1.35;;;29.20;36.60;;;;;;5008323;28;20033;-68
2022/08/10 11:13:34;;;;;;;2.03;1.08;;;29.20;36.20;;;;;;5011882;28;20045;-67
2022/08/10 11:16:23;;;;;;;2.15;1.20;;;29.10;36.50;;;;;;5008521;28;20505;-69
2022/08/10 11:19:17;;;;;;;1.00;1.00;;;29.00;36.30;;;;;;5010792;28;20393;-69
2022/08/10 11:21:49;;;;;;;2.10;1.42;;;29.00;36.70;;;;;;5012185;28;20018;-69
2022/08/10 11:24:36;;;;;;;1.30;1.10;;;29.20;36.90;;;;;;5012221;28;20503;-68
2022/08/10 11:27:31;;;;;;;3.38;2.08;;;29.20;35.80;;;;;;5014803;28;20032;-68
2022/08/10 11:30:06;;;;;;;1.80;1.42;;;29.30;36.00;;;;;;5002403;28;20399;-68
2022/08/10 11:32:59;;;;;;;1.50;1.00;;;29.40;36.30;;;;;;5010907;28;20028;-68
2022/08/10 11:35:49;;;;;;;1.35;1.10;;;29.50;36.30;;;;;;5015830;28;20460;-68
2022/08/10 11:38:29;;;;;;;1.50;1.00;;;29.60;35.70;;;;;;5014660;28;20495;-68
2022/08/10 11:41:19;;;;;;;2.28;0.98;;;29.80;35.70;;;;;;5011867;28;20025;-68
2022/08/10 11:43:52;;;;;;;1.25;1.00;;;29.80;34.70;;;;;;5015572;28;20496;-68
2022/08/10 11:46:30;;;;;;;1.35;1.10;;;29.90;35.00;;;;;;5016203;28;20025;-68
2022/08/10 11:49:05;;;;;;;1.45;0.90;;;30.00;35.10;;;;;;5011880;28;20496;-68
2022/08/10 11:51:52;;;;;;;1.92;1.00;;;30.10;35.00;;;;;;5012065;28;20026;-68
2022/08/10 11:54:37;;;;;;;1.90;0.90;;;30.30;35.10;;;;;;5009100;28;20088;-68
2022/08/10 11:57:03;;;;;;;2.47;0.90;;;30.50;34.50;;;;;;5010134;28;20026;-68
2022/08/10 12:02:20;;;;;;;1.10;1.00;;;30.50;33.80;;;;;;5011326;28;20456;-68
2022/08/10 12:05:10;;;;;;;1.55;1.05;;;30.40;33.90;;;;;;5012403;28;20021;-68
2022/08/10 12:07:42;;;;;;;2.00;1.10;;;30.60;34.10;;;;;;5013456;28;20030;-68
2022/08/10 12:10:09;;;;;;;1.63;1.15;;;30.60;33.90;;;;;;5011675;28;20535;-68
2022/08/10 12:12:49;;;;;;;1.65;0.88;;;30.40;33.10;;;;;;5014064;28;20030;-68
2022/08/10 12:15:21;;;;;;;3.15;1.10;;;30.40;33.80;;;;;;5011089;28;20044;-68
2022/08/10 12:17:52;;;;;;;1.75;1.10;;;30.50;33.10;;;;;;5009229;28;20057;-68
2022/08/10 12:20:34;;;;;;;1.17;0.82;;;30.50;32.80;;;;;;5014952;28;20018;-68
2022/08/10 12:23:22;;;;;;;1.50;0.77;;;30.80;33.10;;;;;;5011077;28;20570;-68
2022/08/10 12:26:24;;;;;;;1.88;1.05;;;31.10;32.90;;;;;;5012131;28;20079;-68
2022/08/10 12:29:01;;;;;;;1.48;0.93;;;30.90;32.20;;;;;;5007551;28;20038;-68
2022/08/10 12:31:34;;;;;;;1.77;1.13;;;30.90;32.40;;;;;;5013082;28;20022;-68
2022/08/10 12:34:17;;;;;;;1.08;0.98;;;30.90;31.90;;;;;;5028329;28;20029;-68
2022/08/10 12:36:52;;;;;;;1.35;1.10;;;30.80;31.40;;;;;;5011155;28;20392;-68
2022/08/10 12:39:25;;;;;;;1.08;0.98;;;30.80;31.00;;;;;;5010803;28;20405;-68
2022/08/10 12:42:11;;;;;;;1.67;0.90;;;30.80;31.30;;;;;;5010639;28;20389;-68
2022/08/10 12:44:59;;;;;;;2.10;1.00;;;30.90;31.40;;;;;;5010660;28;20105;-68
2022/08/10 12:47:55;;;;;;;1.13;1.02;;;31.20;31.20;;;;;;5013564;28;20026;-68
2022/08/10 12:50:32;;;;;;;1.58;1.10;;;31.40;30.90;;;;;;5012327;28;20104;-68
2022/08/10 12:53:17;;;;;;;1.85;1.20;;;31.40;31.20;;;;;;5009733;28;20455;-68
2022/08/10 12:55:46;;;;;;;2.92;1.10;;;31.30;31.20;;;;;;5010847;28;20104;-68
2022/08/10 12:58:13;;;;;;;1.27;0.90;;;31.20;31.50;;;;;;5011623;28;20030;-68
2022/08/10 13:00:42;;;;;;;1.38;0.80;;;31.50;31.70;;;;;;5008703;28;20133;-68
2022/08/10 13:03:08;;;;;;;1.00;0.90;;;32.00;31.60;;;;;;5011224;28;20025;-68
2022/08/10 13:05:34;;;;;;;1.40;0.90;;;32.30;31.10;;;;;;5009392;28;20026;-68
2022/08/10 13:10:59;;;;;;;2.25;1.02;;;32.00;30.40;;;;;;5007906;28;20503;-69
2022/08/10 13:13:32;;;;;;;0.90;0.90;;;31.80;29.90;;;;;;5010550;28;20087;-67
2022/08/10 13:15:58;;;;;;;1.10;1.00;;;31.80;30.00;;;;;;5026020;28;20029;-68
2022/08/10 13:18:32;;;;;;;1.27;1.00;;;32.00;30.20;;;;;;5009579;28;20033;-68
2022/08/10 13:21:03;;;;;;;1.00;0.80;;;31.80;29.80;;;;;;5010851;28;20013;-68
2022/08/10 13:23:33;;;;;;;1.50;1.13;;;31.80;30.00;;;;;;5010870;28;20097;-68
2022/08/10 13:26:01;;;;;;;1.50;1.08;;;31.70;29.90;;;;;;5010975;28;20397;-68